首页
METAR-TAF:

METAR-TAF

机场 :

Ankeny Regional Airport

Ankeny, 艾奥瓦州, 美国

纬度: 41-41-24N, 经度: 093-33-57W, 海拔: 275米

当前天气观测

该预报发布于1小时和32分钟前的20:35 UTC
风速20节,风向西转西北,有时为32节阵风
温度 13°C
湿度 44%
气压 1014 hPa
能見度: 16.1公里
多云层高于5000英尺

METAR: KIKV 152035Z AUTO 30020G32KT 10SM BKN050 13/01 A2993 RMK AO2

时间: 17:07 (22:07 UTC)


TAF: 丢失

超过4000个机场的气象观测和天气预报(METAR&TAF报告)。

可查询的气象台以黄色和红色小点在地图上表示。

将鼠标移到小点上方,可查看气象台名称。

然后点击查看天气观测和预报。

如需切换地图:点击带黑十字的绿色按钮放大地图;点击带横线的绿色按钮缩小地图;或者点击绿色箭头查看邻近地区的地图。


METAR-TAF: